createdAt,value
2023-01-13T00:01:48.840Z,95.20
2023-01-13T00:04:52.892Z,95.64
2023-01-13T00:07:55.950Z,95.03
2023-01-13T00:10:59.697Z,95.29
2023-01-13T00:14:02.701Z,95.35
2023-01-13T00:17:06.124Z,95.11
2023-01-13T00:20:11.209Z,94.88
2023-01-13T00:23:14.455Z,95.12
2023-01-13T00:26:22.967Z,95.13
2023-01-13T00:29:26.356Z,95.11
2023-01-13T00:32:29.581Z,95.00
2023-01-13T00:35:32.984Z,94.93
2023-01-13T00:38:36.735Z,94.73
2023-01-13T00:41:58.725Z,94.68
2023-01-13T00:45:01.890Z,94.37
2023-01-13T00:48:05.220Z,95.01
2023-01-13T00:51:10.220Z,95.61
2023-01-13T00:54:13.626Z,96.67
2023-01-13T00:57:16.821Z,96.54
2023-01-13T01:00:20.422Z,96.64
2023-01-13T01:03:23.382Z,96.92
2023-01-13T01:06:27.442Z,97.14
2023-01-13T01:09:33.666Z,97.28
2023-01-13T01:12:36.970Z,96.92
2023-01-13T01:15:41.399Z,96.84
2023-01-13T01:18:46.341Z,97.02
2023-01-13T01:21:49.910Z,97.51
2023-01-13T01:24:53.201Z,97.26
2023-01-13T01:27:57.665Z,96.50
2023-01-13T01:31:03.462Z,96.78
2023-01-13T01:34:06.901Z,96.83
2023-01-13T01:37:10.885Z,97.45
2023-01-13T01:40:14.071Z,97.66
2023-01-13T01:43:39.171Z,97.49
2023-01-13T01:46:43.529Z,97.36
2023-01-13T01:49:47.180Z,97.07
2023-01-13T01:52:57.731Z,97.10
2023-01-13T01:56:01.143Z,97.30
2023-01-13T01:59:04.547Z,97.43
2023-01-13T02:02:08.567Z,97.62
2023-01-13T02:05:12.243Z,97.96
2023-01-13T02:08:15.560Z,98.19
2023-01-13T02:11:54.620Z,98.09
2023-01-13T02:15:09.844Z,98.54
2023-01-13T02:18:34.540Z,98.62
2023-01-13T02:22:02.362Z,98.76
2023-01-13T02:25:27.627Z,98.81
2023-01-13T02:29:08.974Z,98.98
2023-01-13T02:32:25.239Z,99.14
2023-01-13T02:35:37.225Z,99.22
2023-01-13T02:39:22.373Z,99.35
2023-01-13T02:42:51.868Z,99.11
2023-01-13T02:46:03.485Z,98.88
2023-01-13T02:49:11.026Z,98.89
2023-01-13T02:52:23.958Z,98.43
2023-01-13T02:55:47.056Z,98.60
2023-01-13T02:58:51.081Z,99.02
2023-01-13T03:01:56.356Z,98.80
2023-01-13T03:05:00.865Z,98.53
2023-01-13T03:08:11.826Z,98.42
2023-01-13T03:11:17.633Z,98.37
2023-01-13T03:14:36.621Z,98.15
2023-01-13T03:17:42.858Z,98.05
2023-01-13T03:21:04.879Z,98.12
2023-01-13T03:24:14.367Z,98.30
2023-01-13T03:27:27.743Z,98.46
2023-01-13T03:30:36.349Z,98.66
2023-01-13T03:33:52.881Z,98.83
2023-01-13T03:36:57.788Z,98.86
2023-01-13T03:40:07.672Z,98.87
2023-01-13T03:43:34.365Z,98.72
2023-01-13T03:46:44.363Z,98.89
2023-01-13T03:50:00.147Z,98.75
2023-01-13T03:53:07.828Z,99.22
2023-01-13T03:56:16.464Z,99.07
2023-01-13T03:59:23.916Z,98.82
2023-01-13T04:02:47.489Z,99.00
2023-01-13T04:05:57.731Z,99.39
2023-01-13T04:09:15.162Z,99.22
2023-01-13T04:13:03.077Z,99.53
2023-01-13T04:16:07.788Z,99.72
2023-01-13T04:19:11.079Z,99.55
2023-01-13T04:22:15.363Z,99.91
2023-01-13T04:25:18.708Z,99.94
2023-01-13T04:28:22.801Z,99.81
2023-01-13T04:31:27.437Z,99.90
2023-01-13T04:34:30.367Z,99.82
2023-01-13T04:37:33.815Z,99.74
2023-01-13T04:40:36.854Z,99.91
2023-01-13T04:43:40.150Z,99.92
2023-01-13T04:46:43.113Z,99.79
2023-01-13T04:49:46.320Z,99.49
2023-01-13T04:52:53.479Z,99.36
2023-01-13T04:55:56.641Z,99.39
2023-01-13T04:58:59.520Z,99.97
2023-01-13T05:02:02.903Z,99.85
2023-01-13T05:05:07.123Z,99.81
2023-01-13T05:08:10.930Z,99.87
2023-01-13T05:11:33.409Z,99.90
2023-01-13T05:14:55.309Z,99.97
2023-01-13T05:17:58.572Z,100.00
2023-01-13T05:21:02.416Z,100.00
2023-01-13T05:24:24.113Z,100.00
2023-01-13T05:27:27.786Z,99.93
2023-01-13T05:30:33.411Z,100.00
2023-01-13T05:33:37.095Z,100.00
2023-01-13T05:36:40.089Z,100.00
2023-01-13T05:40:02.323Z,99.57
2023-01-13T05:43:20.194Z,99.54
2023-01-13T05:46:24.668Z,99.42
2023-01-13T05:49:27.663Z,99.62
2023-01-13T05:52:31.023Z,99.90
2023-01-13T05:55:35.355Z,100.00
2023-01-13T05:58:40.245Z,100.00
2023-01-13T06:01:43.416Z,100.00
2023-01-13T06:04:48.109Z,100.00
2023-01-13T06:07:51.041Z,100.00
2023-01-13T06:10:54.577Z,100.00
2023-01-13T06:14:02.471Z,100.00
2023-01-13T06:17:10.964Z,100.00
2023-01-13T06:20:15.362Z,100.00
2023-01-13T06:23:19.151Z,100.00
2023-01-13T06:26:24.185Z,100.00
2023-01-13T06:29:27.768Z,100.00
2023-01-13T06:32:34.441Z,100.00
2023-01-13T06:35:39.763Z,100.00
2023-01-13T06:38:44.801Z,100.00
2023-01-13T06:42:07.158Z,100.00
2023-01-13T06:45:10.687Z,100.00
2023-01-13T06:48:14.503Z,100.00
2023-01-13T06:51:17.464Z,99.68
2023-01-13T06:54:20.676Z,99.42
2023-01-13T06:57:24.226Z,99.21
2023-01-13T07:00:28.811Z,98.45
2023-01-13T07:03:31.870Z,98.48
2023-01-13T07:06:35.411Z,98.74
2023-01-13T07:09:38.506Z,99.03
2023-01-13T07:13:00.774Z,99.15
2023-01-13T07:16:06.077Z,99.26
2023-01-13T07:19:09.522Z,99.17
2023-01-13T07:22:14.010Z,98.53
2023-01-13T07:25:17.193Z,98.57
2023-01-13T07:28:20.260Z,98.70
2023-01-13T07:31:26.138Z,98.47
2023-01-13T07:34:30.599Z,98.55
2023-01-13T07:37:35.714Z,98.14
2023-01-13T07:40:41.382Z,98.06
2023-01-13T07:43:44.691Z,97.84
2023-01-13T07:46:48.686Z,98.03
2023-01-13T07:49:52.170Z,98.13
2023-01-13T07:52:58.594Z,97.88
2023-01-13T07:56:03.478Z,96.95
2023-01-13T07:59:06.355Z,97.32
2023-01-13T08:02:13.269Z,97.51
2023-01-13T08:05:16.724Z,97.26
2023-01-13T08:08:20.150Z,96.95
2023-01-13T08:11:23.750Z,96.45
2023-01-13T08:14:26.508Z,96.36
2023-01-13T08:17:29.723Z,96.37
2023-01-13T08:20:32.931Z,96.47
2023-01-13T08:23:36.795Z,96.29
2023-01-13T08:26:39.705Z,96.14
2023-01-13T08:29:42.894Z,96.02
2023-01-13T08:32:47.637Z,95.32
2023-01-13T08:35:53.415Z,95.12
2023-01-13T08:38:57.638Z,95.27
2023-01-13T08:42:00.994Z,95.40
2023-01-13T08:45:06.234Z,94.82
2023-01-13T08:48:10.354Z,91.99
2023-01-13T08:51:13.475Z,91.66
2023-01-13T08:54:17.265Z,91.59
2023-01-13T08:57:20.563Z,90.89
2023-01-13T09:00:23.946Z,91.00
2023-01-13T09:03:27.067Z,91.21
2023-01-13T09:06:30.415Z,90.84
2023-01-13T09:09:34.148Z,90.05
2023-01-13T09:12:56.001Z,89.20
2023-01-13T09:16:00.475Z,88.78
2023-01-13T09:19:03.991Z,91.10
2023-01-13T09:22:07.121Z,89.76
2023-01-13T09:25:12.687Z,89.69
2023-01-13T09:28:15.488Z,89.56
2023-01-13T09:31:18.747Z,88.05
2023-01-13T09:34:40.428Z,87.49
2023-01-13T09:37:44.813Z,86.13
2023-01-13T09:40:49.924Z,86.42
2023-01-13T09:43:57.949Z,86.03
2023-01-13T09:47:04.857Z,85.32
2023-01-13T09:50:14.202Z,85.61
2023-01-13T09:53:25.529Z,85.83
2023-01-13T09:56:29.006Z,86.20
2023-01-13T09:59:36.514Z,84.65
2023-01-13T10:02:52.131Z,84.55
2023-01-13T10:06:10.812Z,84.54
2023-01-13T10:09:27.675Z,84.39
2023-01-13T10:12:49.824Z,85.40
2023-01-13T10:15:57.090Z,85.15
2023-01-13T10:19:03.374Z,84.47
2023-01-13T10:22:28.004Z,84.44
2023-01-13T10:25:36.860Z,85.95
2023-01-13T10:28:39.752Z,86.34
2023-01-13T10:31:42.915Z,87.17
2023-01-13T10:34:51.322Z,87.30
2023-01-13T10:37:56.995Z,86.46
2023-01-13T10:41:02.095Z,86.56
2023-01-13T10:44:16.396Z,85.40
2023-01-13T10:47:28.140Z,85.33
2023-01-13T10:50:35.265Z,84.89
2023-01-13T10:54:00.616Z,85.06
2023-01-13T10:57:19.314Z,86.30
2023-01-13T11:00:33.903Z,85.87
2023-01-13T11:03:41.596Z,85.43
2023-01-13T11:06:47.345Z,84.77
2023-01-13T11:10:03.908Z,84.07
2023-01-13T11:13:24.122Z,82.97
2023-01-13T11:16:28.369Z,82.94
2023-01-13T11:19:32.608Z,81.98
2023-01-13T11:22:41.575Z,81.85
2023-01-13T11:25:47.675Z,81.39
2023-01-13T11:28:58.133Z,80.73
2023-01-13T11:32:09.750Z,81.01
2023-01-13T11:35:18.993Z,79.16
2023-01-13T11:38:44.531Z,77.53
2023-01-13T11:42:08.880Z,75.08
2023-01-13T11:45:16.968Z,76.29
2023-01-13T11:48:21.002Z,74.73
2023-01-13T11:51:30.092Z,75.30
2023-01-13T11:54:54.250Z,75.50
2023-01-13T11:58:14.629Z,75.74
2023-01-13T12:01:33.790Z,75.81
2023-01-13T12:04:49.713Z,74.39
2023-01-13T12:07:58.644Z,74.41
2023-01-13T12:11:03.535Z,75.39
2023-01-13T12:14:25.191Z,74.60
2023-01-13T12:17:35.298Z,74.04
2023-01-13T12:20:49.881Z,74.15
2023-01-13T12:23:55.930Z,73.18
2023-01-13T12:27:03.223Z,74.88
2023-01-13T12:30:42.037Z,75.13
2023-01-13T12:33:44.826Z,75.83
2023-01-13T12:36:47.889Z,75.39
2023-01-13T12:39:56.878Z,75.38
2023-01-13T12:43:34.176Z,73.70
2023-01-13T12:46:44.253Z,73.83
2023-01-13T12:49:47.408Z,74.83
2023-01-13T12:52:50.298Z,75.88
2023-01-13T12:55:55.468Z,75.50
2023-01-13T12:59:17.055Z,73.76
2023-01-13T13:02:28.343Z,75.86
2023-01-13T13:05:50.163Z,76.55
2023-01-13T13:09:03.843Z,76.63
2023-01-13T13:12:47.654Z,77.04
2023-01-13T13:15:51.667Z,77.03
2023-01-13T13:19:14.182Z,77.25
2023-01-13T13:22:21.447Z,79.37
2023-01-13T13:25:24.400Z,80.03
2023-01-13T13:28:27.513Z,80.79
2023-01-13T13:31:50.287Z,80.20
2023-01-13T13:34:53.210Z,80.43
2023-01-13T13:38:18.643Z,80.50
2023-01-13T13:41:40.983Z,80.88
2023-01-13T13:45:04.764Z,82.80
2023-01-13T13:48:21.065Z,84.30
2023-01-13T13:51:39.130Z,84.65
2023-01-13T13:54:44.599Z,83.30
2023-01-13T13:57:49.314Z,84.11
2023-01-13T14:00:52.402Z,84.07
2023-01-13T14:04:03.197Z,84.02
2023-01-13T14:07:20.932Z,84.58
2023-01-13T14:10:25.942Z,84.96
2023-01-13T14:13:29.523Z,86.04
2023-01-13T14:16:34.206Z,86.06
2023-01-13T14:19:40.423Z,86.67
2023-01-13T14:22:46.996Z,87.05
2023-01-13T14:25:50.693Z,87.48
2023-01-13T14:28:53.852Z,87.26
2023-01-13T14:31:56.779Z,87.86
2023-01-13T14:34:59.885Z,87.36
2023-01-13T14:38:04.241Z,87.07
2023-01-13T14:41:17.027Z,86.37
2023-01-13T14:44:32.775Z,86.74
2023-01-13T14:47:35.810Z,86.94
2023-01-13T14:50:39.548Z,86.46
2023-01-13T14:53:47.145Z,86.45
2023-01-13T14:56:54.897Z,86.77
2023-01-13T15:00:00.818Z,85.93
2023-01-13T15:03:08.082Z,85.94
2023-01-13T15:06:22.358Z,85.46
2023-01-13T15:09:25.782Z,86.24
2023-01-13T15:12:36.311Z,84.62
2023-01-13T15:15:39.883Z,84.71
2023-01-13T15:18:43.127Z,85.51
2023-01-13T15:21:45.797Z,85.79
2023-01-13T15:24:49.098Z,85.29
2023-01-13T15:27:52.272Z,86.27
2023-01-13T15:31:00.806Z,87.32
2023-01-13T15:34:03.635Z,88.62
2023-01-13T15:37:08.601Z,89.11
2023-01-13T15:40:17.142Z,88.35
2023-01-13T15:43:39.901Z,86.79
2023-01-13T15:46:42.631Z,86.94
2023-01-13T15:49:45.675Z,86.86
2023-01-13T15:52:48.378Z,86.38
2023-01-13T15:55:52.168Z,86.33
2023-01-13T15:58:55.607Z,86.31
2023-01-13T16:01:58.718Z,87.17
2023-01-13T16:05:01.962Z,87.19
2023-01-13T16:08:04.952Z,87.07
2023-01-13T16:11:09.268Z,86.99
2023-01-13T16:14:14.100Z,87.25
2023-01-13T16:17:23.473Z,88.15
2023-01-13T16:20:26.412Z,88.56
2023-01-13T16:23:30.734Z,89.00
2023-01-13T16:26:36.272Z,89.04
2023-01-13T16:29:39.290Z,89.10
2023-01-13T16:32:42.015Z,88.43
2023-01-13T16:36:10.245Z,89.29
2023-01-13T16:39:12.775Z,88.83
2023-01-13T16:42:15.926Z,88.12
2023-01-13T16:45:18.956Z,88.43
2023-01-13T16:48:22.880Z,88.70
2023-01-13T16:51:25.755Z,88.33
2023-01-13T16:54:28.858Z,88.62
2023-01-13T16:57:32.563Z,88.83
2023-01-13T17:00:35.696Z,89.12
2023-01-13T17:03:38.928Z,89.86
2023-01-13T17:06:42.976Z,89.18
2023-01-13T17:09:46.333Z,89.96
2023-01-13T17:12:49.863Z,90.87
2023-01-13T17:15:52.865Z,91.98
2023-01-13T17:18:56.309Z,92.53
2023-01-13T17:21:59.076Z,92.76
2023-01-13T17:25:08.707Z,92.85
2023-01-13T17:28:11.533Z,93.21
2023-01-13T17:31:14.676Z,94.05
2023-01-13T17:34:17.765Z,93.88
2023-01-13T17:37:21.184Z,93.21
2023-01-13T17:40:24.882Z,93.58
2023-01-13T17:43:28.239Z,94.33
2023-01-13T17:46:31.771Z,93.94
2023-01-13T17:49:35.595Z,93.85
2023-01-13T17:52:38.791Z,94.15
2023-01-13T17:55:42.471Z,94.67
2023-01-13T17:58:48.315Z,94.49
2023-01-13T18:01:51.907Z,94.22
2023-01-13T18:04:55.118Z,94.56
2023-01-13T18:07:57.906Z,94.83
2023-01-13T18:11:03.005Z,95.15
2023-01-13T18:14:06.000Z,95.48
2023-01-13T18:17:09.561Z,95.78
2023-01-13T18:20:34.681Z,95.62
2023-01-13T18:23:57.059Z,96.29
2023-01-13T18:27:20.765Z,96.47
2023-01-13T18:30:24.374Z,96.17
2023-01-13T18:33:28.307Z,96.42
2023-01-13T18:36:32.131Z,96.36
2023-01-13T18:39:39.122Z,96.25
2023-01-13T18:42:51.931Z,96.29
2023-01-13T18:45:55.378Z,96.32
2023-01-13T18:49:00.606Z,96.31
2023-01-13T18:52:03.752Z,95.87
2023-01-13T18:55:08.338Z,95.88
2023-01-13T18:58:12.993Z,95.39
2023-01-13T19:01:16.707Z,95.17
2023-01-13T19:04:20.316Z,95.75
2023-01-13T19:07:27.355Z,95.86
2023-01-13T19:10:32.924Z,96.76
2023-01-13T19:13:35.940Z,97.24
2023-01-13T19:16:38.688Z,96.81
2023-01-13T19:19:51.815Z,97.25
2023-01-13T19:22:55.163Z,97.67
2023-01-13T19:25:59.524Z,97.34
2023-01-13T19:29:06.858Z,97.68
2023-01-13T19:32:10.652Z,98.49
2023-01-13T19:35:18.264Z,99.18
2023-01-13T19:38:28.772Z,98.76
2023-01-13T19:41:50.658Z,98.42
2023-01-13T19:45:12.526Z,99.28
2023-01-13T19:48:16.771Z,99.32
2023-01-13T19:51:20.281Z,98.87
2023-01-13T19:54:24.647Z,100.00
2023-01-13T19:57:28.215Z,100.00
2023-01-13T20:00:31.350Z,100.00
2023-01-13T20:03:37.798Z,100.00
2023-01-13T20:06:41.808Z,100.00
2023-01-13T20:09:45.933Z,100.00
2023-01-13T20:12:49.244Z,100.00
2023-01-13T20:15:53.339Z,100.00
2023-01-13T20:18:56.995Z,100.00
2023-01-13T20:22:00.699Z,100.00
2023-01-13T20:25:04.706Z,100.00
2023-01-13T20:28:07.830Z,100.00
2023-01-13T20:31:12.742Z,100.00
2023-01-13T20:34:18.694Z,100.00
2023-01-13T20:37:23.228Z,100.00
2023-01-13T20:40:26.341Z,100.00
2023-01-13T20:43:29.287Z,100.00
2023-01-13T20:46:34.231Z,100.00
2023-01-13T20:49:37.997Z,100.00
2023-01-13T20:52:42.180Z,100.00
2023-01-13T20:55:46.682Z,100.00
2023-01-13T20:58:50.107Z,100.00
2023-01-13T21:01:53.146Z,100.00
2023-01-13T21:04:56.903Z,100.00
2023-01-13T21:08:00.197Z,100.00
2023-01-13T21:11:10.906Z,100.00
2023-01-13T21:14:34.206Z,100.00
2023-01-13T21:17:56.305Z,100.00
2023-01-13T21:21:11.813Z,100.00
2023-01-13T21:24:15.453Z,100.00
2023-01-13T21:27:18.967Z,100.00
2023-01-13T21:30:22.316Z,100.00
2023-01-13T21:33:25.478Z,99.23
2023-01-13T21:36:28.840Z,99.16
2023-01-13T21:39:31.535Z,100.00
2023-01-13T21:42:53.171Z,100.00
2023-01-13T21:46:14.621Z,100.00
2023-01-13T21:49:17.331Z,100.00
2023-01-13T21:52:20.140Z,100.00
2023-01-13T21:55:29.892Z,100.00
2023-01-13T21:58:32.719Z,100.00
2023-01-13T22:01:35.759Z,100.00
2023-01-13T22:04:41.973Z,100.00
2023-01-13T22:07:44.746Z,100.00
2023-01-13T22:11:00.804Z,100.00
2023-01-13T22:14:07.190Z,100.00
2023-01-13T22:17:10.331Z,100.00
2023-01-13T22:20:13.504Z,100.00
2023-01-13T22:23:17.209Z,100.00
2023-01-13T22:26:20.156Z,100.00
2023-01-13T22:29:23.224Z,100.00
2023-01-13T22:32:25.988Z,100.00
2023-01-13T22:35:29.007Z,100.00
2023-01-13T22:38:33.535Z,100.00
2023-01-13T22:41:36.540Z,100.00
2023-01-13T22:44:39.609Z,100.00
2023-01-13T22:47:42.717Z,100.00
2023-01-13T22:50:46.094Z,100.00
2023-01-13T22:53:49.063Z,100.00
2023-01-13T22:56:51.783Z,100.00
2023-01-13T22:59:54.824Z,100.00
2023-01-13T23:02:57.520Z,100.00
2023-01-13T23:06:01.805Z,100.00
2023-01-13T23:09:04.605Z,100.00
2023-01-13T23:12:07.677Z,100.00
2023-01-13T23:15:10.528Z,100.00
2023-01-13T23:18:13.624Z,100.00
2023-01-13T23:21:17.379Z,100.00
2023-01-13T23:24:25.983Z,100.00
2023-01-13T23:27:28.680Z,100.00
2023-01-13T23:30:33.293Z,100.00
2023-01-13T23:33:38.254Z,100.00
2023-01-13T23:36:43.897Z,100.00
2023-01-13T23:39:46.593Z,100.00
2023-01-13T23:42:50.573Z,100.00
2023-01-13T23:45:53.575Z,100.00
2023-01-13T23:48:56.773Z,100.00
2023-01-13T23:51:59.505Z,100.00
2023-01-13T23:55:02.680Z,100.00
2023-01-13T23:58:05.515Z,100.00
